Time;durP1;ratioP1;P1;durP2;ratioP2;P2;SDS_P1;SDS_P2;PMS_P1;PMS_P2;Temp;Humidity;BMP_temperature;BMP_pressure;BME280_temperature;BME280_humidity;BME280_pressure;Samples;Min_cycle;Max_cycle;Signal;HPM_P1;HPM_P2
2023/03/02 00:02:07;;;;;;;56.10;26.80;;;;;;;-2.03;69.55;101088.77;130999;1256;107497;-76
2023/03/02 00:05:13;;;;;;;55.90;26.80;;;;;;;-2.04;69.73;101090.90;130799;1255;107463;-74
2023/03/02 00:08:20;;;;;;;50.40;25.70;;;;;;;-2.02;69.45;101092.23;130816;1258;107429;-74
2023/03/02 00:11:25;;;;;;;54.60;25.50;;;;;;;-2.07;69.49;101091.71;130866;1255;107524;-73
2023/03/02 00:14:31;;;;;;;52.10;25.40;;;;;;;-2.13;69.53;101088.63;130785;1257;107381;-74
2023/03/02 00:17:36;;;;;;;51.50;25.70;;;;;;;-2.14;69.53;101085.50;130784;1256;107528;-74
2023/03/02 00:20:42;;;;;;;48.20;24.90;;;;;;;-2.14;69.81;101083.61;130769;1256;107534;-74
2023/03/02 00:23:47;;;;;;;48.20;24.30;;;;;;;-2.18;69.91;101082.49;130844;1256;105820;-74
2023/03/02 00:26:53;;;;;;;48.20;23.50;;;;;;;-2.22;69.95;101083.30;130842;1269;108014;-76
2023/03/02 00:29:59;;;;;;;47.50;23.40;;;;;;;-2.23;69.76;101079.52;130841;1255;107471;-73
2023/03/02 00:33:05;;;;;;;54.20;24.10;;;;;;;-2.28;69.94;101082.14;130851;1256;107451;-75
2023/03/02 00:36:17;;;;;;;51.50;24.80;;;;;;;-2.35;70.22;101083.23;130854;1256;107510;-74
2023/03/02 00:39:23;;;;;;;49.30;24.30;;;;;;;-2.37;70.11;101080.52;130825;1256;107382;-73
2023/03/02 00:42:28;;;;;;;48.90;23.40;;;;;;;-2.41;69.83;101076.44;130718;1256;107451;-77
2023/03/02 00:45:34;;;;;;;50.70;24.60;;;;;;;-2.43;69.98;101073.55;130789;1255;107521;-75
2023/03/02 00:48:40;;;;;;;51.70;24.00;;;;;;;-2.44;69.90;101073.41;130914;1253;107542;-75
2023/03/02 00:51:46;;;;;;;48.00;23.20;;;;;;;-2.47;70.17;101069.84;130891;1256;106442;-75
2023/03/02 00:54:51;;;;;;;47.80;23.90;;;;;;;-2.52;69.74;101066.38;130723;1259;107372;-73
2023/03/02 00:57:57;;;;;;;51.10;25.60;;;;;;;-2.62;70.13;101069.80;130628;1257;109286;-75
2023/03/02 01:01:09;;;;;;;50.50;24.40;;;;;;;-2.62;69.98;101070.51;130754;1267;107521;-74
2023/03/02 01:04:16;;;;;;;48.90;24.60;;;;;;;-2.65;69.89;101071.84;131134;1258;107595;-72
2023/03/02 01:07:23;;;;;;;54.40;24.70;;;;;;;-2.67;70.20;101067.55;131203;1264;107546;-74
2023/03/02 01:10:31;;;;;;;47.90;23.80;;;;;;;-2.66;69.86;101064.39;130816;1259;107392;-74
2023/03/02 01:13:36;;;;;;;46.30;23.60;;;;;;;-2.64;69.82;101059.45;130902;1257;107552;-73
2023/03/02 01:16:42;;;;;;;50.10;23.50;;;;;;;-2.59;70.11;101063.45;130715;1259;107460;-74
2023/03/02 01:19:47;;;;;;;50.50;22.10;;;;;;;-2.53;70.16;101063.44;131068;1265;107458;-73
2023/03/02 01:22:53;;;;;;;52.30;23.50;;;;;;;-2.52;69.56;101061.14;131055;1264;107592;-74
2023/03/02 01:25:59;;;;;;;52.80;24.10;;;;;;;-2.50;69.84;101057.58;131088;1256;107578;-77
2023/03/02 01:29:04;;;;;;;50.70;23.40;;;;;;;-2.48;69.58;101059.63;130978;1253;107588;-74
2023/03/02 01:32:10;;;;;;;56.10;26.10;;;;;;;-2.51;69.87;101056.40;131012;1251;108666;-75
2023/03/02 01:35:16;;;;;;;57.00;25.70;;;;;;;-2.54;69.71;101057.20;131038;1266;109282;-74
2023/03/02 01:38:22;;;;;;;55.70;25.80;;;;;;;-2.58;69.57;101055.23;131003;1257;107571;-74
2023/03/02 01:41:28;;;;;;;55.60;26.30;;;;;;;-2.78;68.95;101054.30;130732;1261;107495;-74
2023/03/02 01:44:45;;;;;;;56.80;26.40;;;;;;;-2.80;69.87;101052.27;130706;1259;107513;-75
2023/03/02 01:47:51;;;;;;;59.90;25.60;;;;;;;-2.82;69.86;101050.76;130963;1256;107442;-74
2023/03/02 01:50:57;;;;;;;57.80;26.70;;;;;;;-2.85;70.00;101042.85;130921;1255;107563;-75
2023/03/02 01:54:08;;;;;;;59.00;28.30;;;;;;;-2.88;69.85;101035.29;130855;1258;108680;-74
2023/03/02 01:57:14;;;;;;;68.50;31.10;;;;;;;-2.88;69.89;101031.81;130734;1256;107531;-73
2023/03/02 02:00:26;;;;;;;63.00;29.00;;;;;;;-2.92;69.74;101027.59;130805;1257;107589;-74
2023/03/02 02:03:32;;;;;;;58.60;27.30;;;;;;;-2.97;69.80;101028.77;130969;1256;106674;-74
2023/03/02 02:06:40;;;;;;;59.30;27.70;;;;;;;-2.98;69.79;101026.02;130992;1256;108682;-74
2023/03/02 02:09:49;;;;;;;60.30;27.50;;;;;;;-3.01;69.68;101025.26;130869;1267;107570;-73
2023/03/02 02:12:55;;;;;;;60.10;27.40;;;;;;;-3.06;69.55;101021.57;131163;1257;107572;-73
2023/03/02 02:16:02;;;;;;;62.30;27.20;;;;;;;-3.14;69.87;101021.66;130888;1257;107283;-75
2023/03/02 02:19:18;;;;;;;59.80;27.20;;;;;;;-3.12;70.17;101015.14;130704;1256;107237;-73
2023/03/02 02:22:32;;;;;;;59.20;26.30;;;;;;;-3.12;70.09;101013.22;131125;1260;107480;-75
2023/03/02 02:25:46;;;;;;;62.70;27.80;;;;;;;-3.07;70.26;101011.52;130990;1256;107520;-76
2023/03/02 02:28:57;;;;;;;58.10;26.00;;;;;;;-3.05;70.43;101012.65;130839;1257;107703;-75
2023/03/02 02:32:09;;;;;;;67.90;29.50;;;;;;;-3.03;69.98;101011.71;131107;1256;107479;-75
2023/03/02 02:35:20;;;;;;;59.00;27.20;;;;;;;-3.09;69.50;101009.12;131152;1264;107529;-74
2023/03/02 02:38:27;;;;;;;59.80;27.00;;;;;;;-3.20;69.95;101005.98;131007;1256;107485;-75
2023/03/02 02:41:36;;;;;;;57.60;26.10;;;;;;;-3.18;69.92;101012.38;130778;1267;107434;-75
2023/03/02 02:44:43;;;;;;;61.40;29.10;;;;;;;-3.15;70.27;101011.42;131073;1256;106556;-75
2023/03/02 02:47:49;;;;;;;62.80;27.40;;;;;;;-3.14;69.98;101000.24;131077;1257;108649;-79
2023/03/02 02:50:59;;;;;;;58.80;26.80;;;;;;;-3.15;70.10;100993.32;130970;1267;107116;-75
2023/03/02 02:54:05;;;;;;;58.40;26.00;;;;;;;-3.13;70.08;100996.23;130947;1267;107459;-75
2023/03/02 02:57:16;;;;;;;67.60;27.40;;;;;;;-3.16;69.84;100992.98;131116;1256;107532;-74
2023/03/02 03:00:23;;;;;;;57.40;25.30;;;;;;;-3.12;70.20;100988.86;131121;1256;107520;-74
2023/03/02 03:03:32;;;;;;;67.40;28.60;;;;;;;-3.06;69.56;100987.29;131044;1251;107421;-71
2023/03/02 03:06:51;;;;;;;60.60;28.30;;;;;;;-3.01;69.84;100987.48;131012;1256;107551;-73
2023/03/02 03:10:04;;;;;;;63.00;27.60;;;;;;;-3.01;69.74;100983.81;130962;1256;107505;-72
2023/03/02 03:13:12;;;;;;;61.30;27.80;;;;;;;-2.99;69.96;100981.85;130969;1257;107454;-71
2023/03/02 03:16:19;;;;;;;61.60;26.70;;;;;;;-3.00;69.73;100981.52;130778;1257;107934;-71
2023/03/02 03:19:29;;;;;;;63.30;28.90;;;;;;;-3.02;69.36;100982.64;130846;1260;107375;-71
2023/03/02 03:22:38;;;;;;;65.90;28.30;;;;;;;-3.08;69.99;100985.25;130887;1257;108614;-71
2023/03/02 03:25:44;;;;;;;62.30;28.30;;;;;;;-3.10;69.80;100985.15;130724;1268;107109;-70
2023/03/02 03:28:50;;;;;;;65.90;28.40;;;;;;;-3.14;69.81;100984.06;130718;1254;107624;-73
2023/03/02 03:31:58;;;;;;;65.80;28.00;;;;;;;-3.20;69.91;100979.87;130723;1260;107526;-71
2023/03/02 03:35:07;;;;;;;63.90;29.00;;;;;;;-3.26;69.64;100977.12;130813;1257;107472;-71
2023/03/02 03:38:13;;;;;;;62.20;28.40;;;;;;;-3.33;69.71;100972.27;131038;1264;106469;-71
2023/03/02 03:41:21;;;;;;;59.40;28.50;;;;;;;-3.38;69.83;100971.55;130946;1264;108099;-71
2023/03/02 03:44:27;;;;;;;59.30;28.10;;;;;;;-3.39;70.12;100973.51;131064;1256;107510;-72
2023/03/02 03:47:33;;;;;;;62.90;28.80;;;;;;;-3.39;70.17;100975.09;130934;1256;108689;-71
2023/03/02 03:50:39;;;;;;;59.70;27.30;;;;;;;-3.42;69.75;100974.98;131032;1256;108680;-70
2023/03/02 03:53:45;;;;;;;59.60;27.20;;;;;;;-3.46;69.67;100975.45;131019;1256;108424;-72
2023/03/02 03:56:51;;;;;;;60.30;27.10;;;;;;;-3.51;69.69;100977.19;131084;1251;107539;-72
2023/03/02 03:59:57;;;;;;;62.30;27.80;;;;;;;-3.50;70.02;100979.08;130899;1256;108083;-70
2023/03/02 04:03:03;;;;;;;61.70;28.30;;;;;;;-3.51;70.01;100984.30;130753;1265;108407;-71
2023/03/02 04:06:17;;;;;;;66.90;31.00;;;;;;;-3.53;69.87;100988.73;131051;1266;107482;-70
2023/03/02 04:09:25;;;;;;;63.40;28.80;;;;;;;-3.55;69.93;100995.70;130943;1251;107541;-71
2023/03/02 04:12:31;;;;;;;71.10;30.30;;;;;;;-3.54;69.84;100993.09;130759;1267;107451;-73
2023/03/02 04:15:37;;;;;;;67.30;29.00;;;;;;;-3.54;69.83;100997.25;130884;1259;106721;-70
2023/03/02 04:18:43;;;;;;;64.60;29.30;;;;;;;-3.50;70.07;100999.77;130659;1256;108264;-71
2023/03/02 04:21:51;;;;;;;62.60;29.40;;;;;;;-3.43;70.36;101001.82;131008;1255;108366;-71
2023/03/02 04:24:57;;;;;;;62.40;29.90;;;;;;;-3.32;70.38;101005.98;130866;1255;107441;-73
2023/03/02 04:28:04;;;;;;;64.30;30.20;;;;;;;-3.21;70.32;101003.21;130878;1266;108417;-71
2023/03/02 04:31:14;;;;;;;65.20;29.50;;;;;;;-3.06;70.29;101005.39;130851;1255;108311;-71
2023/03/02 04:34:20;;;;;;;74.90;30.80;;;;;;;-2.88;70.50;101002.73;130770;1257;108486;-71
2023/03/02 04:37:26;;;;;;;78.10;31.80;;;;;;;-2.67;70.90;101005.35;130787;1257;245779;-70
2023/03/02 04:40:32;;;;;;;73.20;32.60;;;;;;;-2.46;70.64;101011.81;131123;1266;107546;-71
2023/03/02 04:43:38;;;;;;;74.10;33.50;;;;;;;-2.27;70.77;101007.35;131133;1257;108138;-70
2023/03/02 04:46:44;;;;;;;80.60;36.80;;;;;;;-2.14;71.02;101006.36;130876;1264;108227;-70
2023/03/02 04:49:53;;;;;;;89.30;38.00;;;;;;;-2.01;70.61;101006.41;130923;1264;107554;-72
2023/03/02 04:52:59;;;;;;;92.20;42.40;;;;;;;-1.91;71.11;101005.36;130978;1257;107488;-70
2023/03/02 04:56:05;;;;;;;91.20;40.90;;;;;;;-1.82;70.98;100995.64;130948;1251;107494;-72
2023/03/02 04:59:11;;;;;;;87.70;40.00;;;;;;;-1.73;71.15;100996.00;131076;1251;107378;-71
2023/03/02 05:02:16;;;;;;;92.60;40.30;;;;;;;-1.68;71.40;101002.81;130944;1255;107426;-71
2023/03/02 05:05:24;;;;;;;101.40;43.00;;;;;;;-1.63;71.55;101001.75;130931;1257;107528;-71
2023/03/02 05:08:31;;;;;;;99.90;44.90;;;;;;;-1.57;71.38;100998.91;130923;1258;107503;-71
2023/03/02 05:11:36;;;;;;;109.50;48.10;;;;;;;-1.52;71.75;101003.45;130923;1256;107438;-71
2023/03/02 05:14:42;;;;;;;127.60;54.30;;;;;;;-1.46;71.77;101006.02;131106;1264;105889;-70
2023/03/02 05:17:47;;;;;;;135.30;60.70;;;;;;;-1.42;71.77;101004.44;130892;1264;108699;-72
2023/03/02 05:20:54;;;;;;;142.40;62.20;;;;;;;-1.37;71.94;101010.89;130877;1251;107635;-71
2023/03/02 05:24:00;;;;;;;131.20;59.30;;;;;;;-1.33;71.76;101015.13;131126;1251;107363;-71
2023/03/02 05:27:06;;;;;;;161.80;68.70;;;;;;;-1.29;72.20;101011.46;130980;1254;107451;-71
2023/03/02 05:30:14;;;;;;;149.40;63.10;;;;;;;-1.23;72.07;101007.38;131009;1256;106695;-71
2023/03/02 05:33:20;;;;;;;146.00;61.00;;;;;;;-1.16;72.30;101009.75;131177;1257;108663;-70
2023/03/02 05:36:26;;;;;;;139.70;59.10;;;;;;;-1.05;72.54;101011.93;131144;1257;107537;-71
2023/03/02 05:39:31;;;;;;;130.40;55.40;;;;;;;-0.92;72.47;101012.84;130943;1257;108064;-71
2023/03/02 05:42:37;;;;;;;146.80;63.30;;;;;;;-0.80;72.41;101016.36;131037;1257;107165;-72
2023/03/02 05:45:43;;;;;;;140.40;61.70;;;;;;;-0.76;72.55;101015.33;131031;1251;107214;-71
2023/03/02 05:48:48;;;;;;;130.20;58.80;;;;;;;-0.70;72.72;101018.73;131048;1253;107518;-70
2023/03/02 05:51:54;;;;;;;130.10;56.70;;;;;;;-0.62;72.77;101024.37;131146;1264;107794;-70
2023/03/02 05:54:59;;;;;;;144.50;62.50;;;;;;;-0.58;73.02;101025.79;130860;1264;107806;-70
2023/03/02 05:58:07;;;;;;;129.40;62.30;;;;;;;-0.58;73.09;101026.48;130871;1254;108062;-72
2023/03/02 06:01:13;;;;;;;139.20;67.30;;;;;;;-0.54;73.07;101023.01;131028;1257;108676;-73
2023/03/02 06:04:18;;;;;;;167.50;72.30;;;;;;;-0.48;73.05;101024.48;131054;1251;108570;-71
2023/03/02 06:07:26;;;;;;;238.10;88.50;;;;;;;-0.42;73.28;101026.84;130955;1254;107621;-71
2023/03/02 06:10:32;;;;;;;421.50;141.10;;;;;;;-0.40;73.26;101025.22;131001;1251;107938;-71
2023/03/02 06:13:38;;;;;;;336.10;109.90;;;;;;;-0.37;73.48;101022.47;130925;1256;107440;-70
2023/03/02 06:16:44;;;;;;;521.70;176.30;;;;;;;-0.30;73.55;101017.29;131202;1251;108791;-70
2023/03/02 06:19:49;;;;;;;565.20;177.40;;;;;;;-0.29;73.63;101018.29;131213;1251;108100;-71
2023/03/02 06:22:55;;;;;;;525.60;167.50;;;;;;;-0.26;73.74;101021.31;130913;1254;108391;-71
2023/03/02 06:26:00;;;;;;;423.00;139.50;;;;;;;-0.17;74.31;101026.90;131007;1257;107487;-71
2023/03/02 06:29:06;;;;;;;875.70;268.30;;;;;;;-0.15;74.35;101027.32;131040;1257;107465;-71
2023/03/02 06:32:12;;;;;;;443.60;145.60;;;;;;;0.00;74.31;101026.83;131052;1265;107625;-69
2023/03/02 06:35:17;;;;;;;289.90;97.50;;;;;;;0.19;74.24;101034.42;130759;1256;106480;-71
2023/03/02 06:38:23;;;;;;;407.90;137.40;;;;;;;0.31;74.20;101030.73;131037;1251;107532;-71
2023/03/02 06:41:28;;;;;;;518.50;161.60;;;;;;;0.47;74.09;101026.33;131127;1257;105906;-71
2023/03/02 06:44:34;;;;;;;314.50;106.10;;;;;;;0.58;74.41;101023.77;131110;1257;107766;-71
2023/03/02 06:47:39;;;;;;;220.50;92.60;;;;;;;0.52;74.72;101031.19;131155;1254;107603;-71
2023/03/02 06:50:45;;;;;;;397.90;157.00;;;;;;;0.54;74.71;101026.90;130993;1256;107502;-69
2023/03/02 06:53:51;;;;;;;481.00;201.20;;;;;;;0.67;74.75;101028.25;130894;1256;108379;-71
2023/03/02 06:56:56;;;;;;;353.40;133.70;;;;;;;0.75;74.89;101036.27;131051;1258;107509;-71
2023/03/02 07:00:08;;;;;;;299.30;112.40;;;;;;;0.82;74.85;101033.84;131075;1258;107482;-72
2023/03/02 07:03:13;;;;;;;272.00;100.80;;;;;;;0.93;74.90;101033.70;130977;1255;108389;-71
2023/03/02 07:06:19;;;;;;;284.80;98.70;;;;;;;1.07;74.94;101030.23;131047;1256;107615;-71
2023/03/02 07:09:25;;;;;;;237.20;82.10;;;;;;;1.22;74.91;101037.56;131055;1251;107561;-70
2023/03/02 07:12:30;;;;;;;186.40;74.00;;;;;;;1.39;75.07;101038.30;130879;1262;108409;-72
2023/03/02 07:15:38;;;;;;;194.60;78.90;;;;;;;1.57;74.75;101040.60;130928;1256;107528;-72
2023/03/02 07:18:43;;;;;;;156.60;63.60;;;;;;;1.74;74.87;101039.92;131010;1255;106549;-71
2023/03/02 07:21:49;;;;;;;132.40;57.00;;;;;;;1.86;74.90;101039.15;131165;1250;107634;-70
2023/03/02 07:24:55;;;;;;;103.60;48.40;;;;;;;1.97;74.78;101038.43;130964;1251;107266;-72
2023/03/02 07:28:00;;;;;;;100.90;45.80;;;;;;;2.06;74.86;101035.86;130989;1254;106149;-72
2023/03/02 07:31:06;;;;;;;87.20;44.40;;;;;;;2.13;74.72;101034.46;131005;1251;107245;-73
2023/03/02 07:34:12;;;;;;;104.60;47.80;;;;;;;2.19;74.87;101033.77;130928;1256;107404;-72
2023/03/02 07:37:17;;;;;;;90.10;43.90;;;;;;;2.24;74.86;101030.55;130912;1256;106515;-73
2023/03/02 07:40:23;;;;;;;81.30;42.30;;;;;;;2.29;75.03;101029.23;131039;1255;107575;-72
2023/03/02 07:43:29;;;;;;;83.70;42.90;;;;;;;2.34;75.09;101022.96;130955;1257;107285;-70
2023/03/02 07:46:35;;;;;;;79.90;40.80;;;;;;;2.39;75.04;101022.38;130924;1251;107353;-72
2023/03/02 07:49:41;;;;;;;84.30;43.30;;;;;;;2.44;75.06;101021.02;130973;1257;107499;-71
2023/03/02 07:52:46;;;;;;;136.30;75.40;;;;;;;2.47;75.07;101027.19;130891;1251;107576;-71
2023/03/02 07:55:52;;;;;;;102.50;54.20;;;;;;;2.50;75.09;101023.34;130910;1254;107530;-72
2023/03/02 07:58:57;;;;;;;160.80;89.50;;;;;;;2.56;75.02;101026.74;130975;1256;106595;-72
2023/03/02 08:02:03;;;;;;;85.90;45.00;;;;;;;2.63;75.13;101021.07;130929;1255;107399;-72
2023/03/02 08:05:09;;;;;;;115.00;59.50;;;;;;;2.72;75.18;101024.45;130953;1257;106604;-74
2023/03/02 08:08:15;;;;;;;99.60;51.90;;;;;;;2.80;75.02;101022.81;130954;1258;107372;-72
2023/03/02 08:11:20;;;;;;;87.00;44.80;;;;;;;2.83;75.19;101022.97;131053;1256;108633;-69
2023/03/02 08:14:26;;;;;;;101.40;55.40;;;;;;;2.86;75.12;101020.88;130828;1256;106303;-71
2023/03/02 08:17:32;;;;;;;114.30;62.60;;;;;;;2.92;74.99;101017.22;130939;1257;107525;-72
2023/03/02 08:20:38;;;;;;;103.10;51.30;;;;;;;2.99;74.93;101021.93;130819;1256;107550;-72
2023/03/02 08:23:44;;;;;;;107.50;55.90;;;;;;;3.02;75.04;101021.24;130848;1253;107459;-71
2023/03/02 08:26:49;;;;;;;354.70;171.70;;;;;;;3.03;75.06;101023.84;130828;1257;107421;-72
2023/03/02 08:29:56;;;;;;;253.80;112.60;;;;;;;3.02;75.01;101019.84;130839;1258;106801;-71
2023/03/02 08:33:02;;;;;;;133.50;72.40;;;;;;;3.04;75.12;101019.18;130813;1255;107273;-70
2023/03/02 08:36:10;;;;;;;100.00;51.40;;;;;;;3.06;75.13;101018.00;130768;1255;107961;-72
2023/03/02 08:39:16;;;;;;;75.40;39.20;;;;;;;3.11;75.12;101024.95;130859;1256;107226;-72
2023/03/02 08:42:22;;;;;;;77.40;37.70;;;;;;;3.19;75.17;101018.55;130896;1267;107551;-72
2023/03/02 08:45:27;;;;;;;83.50;42.70;;;;;;;3.27;75.28;101016.64;130822;1255;106469;-72
2023/03/02 08:48:33;;;;;;;83.00;43.80;;;;;;;3.40;75.20;101015.02;130865;1253;107530;-72
2023/03/02 08:51:38;;;;;;;92.90;45.60;;;;;;;3.49;75.17;101010.45;130945;1256;107453;-71
2023/03/02 08:54:44;;;;;;;83.70;44.20;;;;;;;3.55;75.09;101010.64;130925;1258;106302;-71
2023/03/02 08:57:49;;;;;;;90.90;45.70;;;;;;;3.61;75.05;101009.44;130945;1256;107626;-71
2023/03/02 09:00:55;;;;;;;78.80;42.10;;;;;;;3.62;74.99;100998.44;130841;1254;107523;-72
2023/03/02 09:04:01;;;;;;;78.00;40.20;;;;;;;3.64;75.03;101005.55;130905;1256;108489;-72
2023/03/02 09:07:07;;;;;;;56.50;29.60;;;;;;;3.67;75.03;101006.60;130954;1251;108685;-70
2023/03/02 09:10:13;;;;;;;44.40;25.20;;;;;;;3.67;74.76;101001.52;130894;1251;107248;-72
2023/03/02 09:13:19;;;;;;;50.80;27.20;;;;;;;3.66;74.91;101003.00;130964;1257;107890;-71
2023/03/02 09:16:25;;;;;;;48.30;28.00;;;;;;;3.70;75.05;100997.97;130878;1256;107505;-72
2023/03/02 09:19:30;;;;;;;50.80;28.60;;;;;;;3.76;74.87;100995.16;130966;1255;105750;-72
2023/03/02 09:22:36;;;;;;;50.10;28.30;;;;;;;3.81;74.90;100994.02;130884;1256;107267;-71
2023/03/02 09:25:42;;;;;;;52.10;26.70;;;;;;;3.87;74.80;100995.08;130843;1256;108000;-72
2023/03/02 09:28:47;;;;;;;43.30;23.20;;;;;;;3.91;74.75;100994.80;130917;1251;106762;-72
2023/03/02 09:31:53;;;;;;;46.60;24.50;;;;;;;3.98;74.88;100994.21;130965;1253;107585;-72
2023/03/02 09:34:58;;;;;;;45.90;25.20;;;;;;;4.06;74.83;100990.58;130969;1256;107254;-72
2023/03/02 09:38:04;;;;;;;46.10;25.70;;;;;;;4.17;74.63;100986.76;130888;1251;107519;-71
2023/03/02 09:41:54;;;;;;;51.80;29.70;;;;;;;4.26;74.81;100982.31;130921;1251;107563;-72
2023/03/02 09:45:15;;;;;;;48.40;25.30;;;;;;;4.37;74.65;100978.98;130594;1256;107549;-72
2023/03/02 09:48:31;;;;;;;43.20;25.30;;;;;;;4.39;74.43;100982.56;130975;1254;107637;-70
2023/03/02 09:51:43;;;;;;;47.20;25.50;;;;;;;4.40;74.41;100983.90;130935;1267;106426;-72
2023/03/02 09:54:49;;;;;;;47.90;27.80;;;;;;;4.41;74.46;100986.88;130980;1256;107468;-73
2023/03/02 09:57:56;;;;;;;43.90;24.90;;;;;;;4.39;74.46;100987.14;131021;1256;107594;-72
2023/03/02 10:01:04;;;;;;;47.80;25.50;;;;;;;4.33;74.28;100990.86;130903;1256;107455;-74
2023/03/02 10:04:23;;;;;;;45.20;25.80;;;;;;;4.26;74.31;100989.52;130925;1251;107548;-72
2023/03/02 10:07:31;;;;;;;45.90;26.90;;;;;;;4.24;74.37;100994.23;130992;1256;107277;-72
2023/03/02 10:10:40;;;;;;;52.90;30.80;;;;;;;4.25;74.39;100994.48;130919;1251;106259;-71
2023/03/02 10:13:49;;;;;;;53.80;30.00;;;;;;;4.22;74.21;100998.75;130949;1256;107458;-72
2023/03/02 10:17:06;;;;;;;61.30;33.30;;;;;;;4.16;74.33;100997.89;130902;1251;107446;-72
2023/03/02 10:20:18;;;;;;;67.70;38.60;;;;;;;4.10;74.44;100991.89;130890;1256;107477;-71
2023/03/02 10:23:27;;;;;;;;;;;;;;;4.11;74.42;100995.57;131008;1256;107511;-72
2023/03/02 10:26:39;;;;;;;56.00;29.10;;;;;;;4.09;74.35;100993.17;131007;1257;108167;-70
2023/03/02 10:29:50;;;;;;;;;;;;;;;4.07;74.37;100992.09;130959;1253;107568;-72
2023/03/02 10:32:59;;;;;;;54.40;28.90;;;;;;;4.11;74.41;100984.60;131074;1262;107440;-70
2023/03/02 10:36:15;;;;;;;47.90;27.90;;;;;;;4.16;74.29;100982.75;131089;1251;107380;-70
2023/03/02 10:39:20;;;;;;;54.90;28.60;;;;;;;4.21;74.27;100981.73;130831;1256;107715;-72
2023/03/02 10:42:29;;;;;;;51.30;28.80;;;;;;;4.25;74.35;100981.98;131079;1251;107390;-72
2023/03/02 10:45:35;;;;;;;50.90;28.40;;;;;;;4.28;74.18;100984.09;131100;1257;107349;-70
2023/03/02 10:48:51;;;;;;;71.50;38.70;;;;;;;4.28;74.15;100981.63;130971;1257;107854;-72
2023/03/02 10:52:04;;;;;;;93.30;48.30;;;;;;;4.37;74.24;100972.83;131041;1256;107359;-72
2023/03/02 10:55:16;;;;;;;63.20;34.30;;;;;;;4.49;74.34;100970.27;131037;1256;107592;-72
2023/03/02 10:58:30;;;;;;;59.60;34.50;;;;;;;4.57;74.03;100965.23;131117;1251;107532;-70
2023/03/02 11:01:36;;;;;;;52.90;28.60;;;;;;;4.60;73.91;100962.04;130948;1253;108113;-72
2023/03/02 11:04:41;;;;;;;72.00;38.80;;;;;;;4.58;74.05;100958.31;130978;1265;108175;-71
2023/03/02 11:07:57;;;;;;;56.80;33.20;;;;;;;4.59;73.90;100955.23;131110;1251;107684;-72
2023/03/02 11:11:04;;;;;;;58.10;33.70;;;;;;;4.60;74.00;100953.39;130998;1255;108683;-72
2023/03/02 11:14:16;;;;;;;55.50;32.30;;;;;;;4.66;74.01;100952.16;130820;1253;107402;-72
2023/03/02 11:17:37;;;;;;;63.10;35.90;;;;;;;4.70;73.87;100950.98;130927;1251;108493;-72
2023/03/02 11:20:47;;;;;;;56.80;30.70;;;;;;;4.74;73.88;100950.92;130947;1251;107489;-71
2023/03/02 11:24:02;;;;;;;48.30;28.00;;;;;;;4.71;73.83;100949.55;130924;1261;107352;-72
2023/03/02 11:27:13;;;;;;;108.30;57.30;;;;;;;4.72;73.70;100944.15;130940;1251;108584;-72
2023/03/02 11:30:23;;;;;;;86.80;41.70;;;;;;;4.76;73.73;100940.96;130979;1256;107515;-72
2023/03/02 11:33:34;;;;;;;88.60;43.90;;;;;;;4.83;73.74;100932.20;131040;1258;107361;-74
2023/03/02 11:36:52;;;;;;;59.60;32.50;;;;;;;4.91;73.73;100931.15;131109;1256;107353;-70
2023/03/02 11:40:14;;;;;;;56.70;30.10;;;;;;;5.02;73.71;100927.81;130988;1253;107598;-73
2023/03/02 11:43:20;;;;;;;54.40;28.80;;;;;;;5.09;73.59;100929.61;130943;1256;107241;-72
2023/03/02 11:46:29;;;;;;;61.30;33.90;;;;;;;5.16;73.31;100927.09;130936;1257;107327;-72
2023/03/02 11:49:42;;;;;;;53.70;29.00;;;;;;;5.20;73.37;100925.39;130910;1256;107528;-72
2023/03/02 11:52:47;;;;;;;;;;;;;;;5.18;73.19;100924.97;130935;1256;107575;-71
2023/03/02 11:55:53;;;;;;;53.00;29.80;;;;;;;5.18;73.10;100923.06;130929;1251;107395;-71
2023/03/02 11:59:03;;;;;;;64.50;34.20;;;;;;;5.22;73.42;100920.63;131122;1251;107415;-72
2023/03/02 12:02:14;;;;;;;72.40;37.60;;;;;;;5.31;73.34;100915.79;130908;1256;106834;-72
2023/03/02 12:05:31;;;;;;;65.60;35.10;;;;;;;5.37;73.11;100912.44;130970;1253;107355;-72
2023/03/02 12:08:40;;;;;;;53.10;29.50;;;;;;;5.35;73.13;100913.80;130911;1256;107530;-72
2023/03/02 12:11:53;;;;;;;56.00;30.00;;;;;;;5.36;73.10;100910.00;130952;1256;106343;-72
2023/03/02 12:14:59;;;;;;;50.30;28.80;;;;;;;5.35;72.94;100907.77;130925;1264;107329;-72
2023/03/02 12:18:29;;;;;;;51.50;29.20;;;;;;;5.31;72.94;100910.02;130912;1255;107378;-73
2023/03/02 12:21:41;;;;;;;42.80;25.70;;;;;;;5.30;72.87;100908.10;130887;1251;107377;-72
2023/03/02 12:24:45;;;;;;;;;;;;;;;5.27;72.77;100903.56;131040;1256;107337;-71
2023/03/02 12:27:54;;;;;;;48.10;25.50;;;;;;;5.22;72.62;100901.97;131123;1267;107540;-72
2023/03/02 12:31:10;;;;;;;45.00;26.30;;;;;;;5.07;72.35;100898.55;131078;1251;107384;-72
2023/03/02 12:34:34;;;;;;;46.10;25.60;;;;;;;5.00;72.63;100895.50;130962;1251;108129;-70
2023/03/02 12:37:47;;;;;;;44.90;24.80;;;;;;;4.97;72.78;100894.98;131094;1254;107627;-72
2023/03/02 12:41:08;;;;;;;45.70;26.50;;;;;;;4.98;72.88;100894.23;130919;1251;107520;-72
2023/03/02 12:44:30;;;;;;;50.40;28.00;;;;;;;5.01;72.70;100887.64;130992;1258;107411;-72
2023/03/02 12:47:38;;;;;;;52.90;29.60;;;;;;;4.93;72.41;100890.96;131045;1251;107284;-72
2023/03/02 12:50:43;;;;;;;53.70;29.40;;;;;;;4.86;72.58;100887.05;130996;1251;107541;-70
2023/03/02 12:53:49;;;;;;;55.90;29.70;;;;;;;4.84;72.83;100884.17;130874;1256;109387;-72
2023/03/02 12:57:07;;;;;;;60.20;30.90;;;;;;;4.87;72.82;100883.48;130908;1256;107514;-72
2023/03/02 13:00:19;;;;;;;54.40;29.40;;;;;;;4.90;72.54;100877.05;130971;1256;106695;-71
2023/03/02 13:03:25;;;;;;;;;;;;;;;4.90;72.52;100877.80;130959;1256;108127;-71
2023/03/02 13:06:36;;;;;;;56.40;30.90;;;;;;;4.86;72.21;100873.52;130923;1251;107540;-71
2023/03/02 13:09:41;;;;;;;50.40;28.10;;;;;;;4.72;72.35;100872.64;130985;1251;107478;-70
2023/03/02 13:12:47;;;;;;;49.50;25.00;;;;;;;4.67;72.61;100868.15;130891;1256;108145;-72
2023/03/02 13:15:56;;;;;;;51.70;26.40;;;;;;;4.71;72.71;100864.92;130901;1253;107979;-72
2023/03/02 13:19:05;;;;;;;64.90;29.90;;;;;;;4.76;72.66;100863.55;131119;1256;107337;-72
2023/03/02 13:22:13;;;;;;;45.50;26.80;;;;;;;4.84;72.47;100855.44;131137;1264;108737;-71
2023/03/02 13:25:25;;;;;;;49.10;28.40;;;;;;;4.84;71.90;100846.42;131040;1251;107514;-70
2023/03/02 13:28:33;;;;;;;44.30;26.40;;;;;;;4.74;71.90;100841.64;130871;1255;106554;-72
2023/03/02 13:31:39;;;;;;;45.40;26.50;;;;;;;4.71;72.32;100838.48;130964;1255;107552;-72
2023/03/02 13:34:49;;;;;;;47.30;26.30;;;;;;;4.72;72.32;100842.66;130905;1268;108094;-71
2023/03/02 13:38:03;;;;;;;41.40;25.00;;;;;;;4.73;72.46;100834.52;131096;1256;107450;-71
2023/03/02 13:41:08;;;;;;;41.20;24.10;;;;;;;4.70;72.23;100833.27;130998;1257;107520;-72
2023/03/02 13:44:20;;;;;;;43.50;24.60;;;;;;;4.60;72.30;100832.38;131148;1254;107547;-72
2023/03/02 13:47:26;;;;;;;37.80;23.20;;;;;;;4.49;72.23;100830.59;130914;1251;107273;-72
2023/03/02 13:50:32;;;;;;;40.00;23.40;;;;;;;4.41;72.55;100829.23;131129;1251;107526;-71
2023/03/02 13:53:39;;;;;;;44.00;24.90;;;;;;;4.41;72.51;100829.02;130985;1251;106275;-72
2023/03/02 13:56:45;;;;;;;43.70;23.40;;;;;;;4.31;72.51;100825.22;131025;1251;107242;-71
2023/03/02 13:59:51;;;;;;;40.70;22.30;;;;;;;4.19;72.51;100824.07;130862;1254;107477;-70